Flight Information

DEPARTURE
EVERETT, WA
Elevation:
607
Runways:
16L/34R - 3004x75 - ASPH-G
16R/34L - 9010x150 - ASPH-CONC-G
Tower:
132.95
DESTINATION
,
Elevation:
TPA:
1000 (est.)


6658.5 NM65° True-20° Var44° HDG

Flight Plan:
(click to file on line)

1. Type
2. Aircraft Identification
3. Aircraft Type / Special Equipment
4. True Airspeed
kts
5. Departure Airport
(ICAO code)
6. Arriving Airport
(ICAO code)
7. Cruising Altitude
ft
8. Alternate Airport
(ICAO code)
9. Route of Flight
10. Remarks


00:00:00 Departure ATIS: Destination ATIS:

Clearance Limit:
Route:
Altitude: Expect in minutes
Frequency:
Transponder: (7500 Hijack / 7600 Lost Comms / 7700 Emergency)


KPAE 110253Z VRB06KT 10SM BKN085 07/M02 A3030 RMK AO2 SLP264 T00671022 52011
Time: 2021-04-11T02:53:00Z
1618110376
Winds: variable
Visibility: 10.0 sm
Clouds (AGL): BKN 8500
Temperature: 6.7 C
Dew Point: -2.2 C
Pressure: 30.301182 in Hgbr


Notes:

Data extracted from FAA Digital Chart Supplement. Effective: 0901Z Thursday, Feb 25, 2021 to 0901Z Thursday, APR 22, 2021
Current ATIS data is provided courtisy of PilotEdge.